Terminal Aerodrome Forecast
Issued by NWS

Home | Current Version | Previous Version | Text Only | Print | Product List | Glossary On
Versions: 1 2 3 4 5 6 7 8 9 10 11 12 13 14 15 16 17 18 19
000
FTUS46 KOTX 261738
TAFSFF
TAF
KSFF 261738Z 2618/2718 23013KT P6SM BKN025
     FM261900 22013G20KT P6SM SCT040 BKN070
     FM262200 23011G18KT P6SM -SHRA BKN050
     FM270400 23009KT P6SM SCT060
     FM271400 20010KT P6SM BKN020=

USA.gov is the U.S. government's official web portal to all federal, state and local government web resources and services.